createdAt,value
2022-11-10T00:02:08.101Z,91.65
2022-11-10T00:04:53.262Z,92.06
2022-11-10T00:07:38.649Z,91.71
2022-11-10T00:10:24.514Z,92.94
2022-11-10T00:13:09.372Z,91.73
2022-11-10T00:16:12.974Z,92.23
2022-11-10T00:18:58.393Z,94.01
2022-11-10T00:21:43.711Z,93.14
2022-11-10T00:24:29.438Z,94.50
2022-11-10T00:27:14.965Z,93.61
2022-11-10T00:30:00.844Z,94.59
2022-11-10T00:32:48.136Z,94.37
2022-11-10T00:35:33.319Z,94.89
2022-11-10T00:38:18.574Z,94.35
2022-11-10T00:41:04.051Z,95.06
2022-11-10T00:43:49.197Z,93.55
2022-11-10T00:46:34.434Z,93.67
2022-11-10T00:49:19.769Z,93.47
2022-11-10T00:52:05.336Z,93.06
2022-11-10T00:54:50.689Z,93.85
2022-11-10T00:57:35.859Z,93.37
2022-11-10T01:00:21.189Z,94.40
2022-11-10T01:03:07.042Z,95.40
2022-11-10T01:05:52.532Z,96.38
2022-11-10T01:08:38.337Z,95.18
2022-11-10T01:11:26.454Z,95.66
2022-11-10T01:14:11.608Z,94.52
2022-11-10T01:16:56.467Z,94.85
2022-11-10T01:19:42.250Z,94.42
2022-11-10T01:22:27.412Z,95.34
2022-11-10T01:25:12.782Z,94.68
2022-11-10T01:27:58.002Z,94.55
2022-11-10T01:30:43.197Z,94.32
2022-11-10T01:33:29.015Z,95.16
2022-11-10T01:36:14.308Z,94.95
2022-11-10T01:39:00.980Z,94.59
2022-11-10T01:41:46.364Z,94.84
2022-11-10T01:44:31.677Z,96.15
2022-11-10T01:47:17.152Z,97.44
2022-11-10T01:50:02.709Z,97.67
2022-11-10T01:52:51.165Z,97.16
2022-11-10T01:55:39.062Z,98.48
2022-11-10T01:58:34.189Z,98.39
2022-11-10T02:01:19.319Z,97.75
2022-11-10T02:04:13.140Z,98.39
2022-11-10T02:06:59.306Z,98.35
2022-11-10T02:09:44.611Z,97.70
2022-11-10T02:12:40.228Z,97.21
2022-11-10T02:15:25.770Z,97.93
2022-11-10T02:18:11.126Z,98.90
2022-11-10T02:20:56.257Z,97.55
2022-11-10T02:23:45.405Z,98.87
2022-11-10T02:26:30.520Z,100.00
2022-11-10T02:29:16.071Z,98.84
2022-11-10T02:32:01.177Z,98.69
2022-11-10T02:34:46.467Z,98.52
2022-11-10T02:37:32.365Z,98.17
2022-11-10T02:40:17.433Z,99.49
2022-11-10T02:43:05.527Z,99.59
2022-11-10T02:45:50.941Z,98.24
2022-11-10T02:48:36.214Z,99.26
2022-11-10T02:51:21.501Z,99.97
2022-11-10T02:54:06.773Z,100.00
2022-11-10T02:56:52.094Z,100.00
2022-11-10T02:59:37.176Z,100.00
2022-11-10T03:02:22.649Z,98.28
2022-11-10T03:05:08.167Z,100.00
2022-11-10T03:07:55.432Z,100.00
2022-11-10T03:10:40.338Z,100.00
2022-11-10T03:13:40.008Z,100.00
2022-11-10T03:16:31.902Z,100.00
2022-11-10T03:19:17.259Z,100.00
2022-11-10T03:22:02.566Z,100.00
2022-11-10T03:24:47.718Z,98.97
2022-11-10T03:27:32.721Z,99.25
2022-11-10T03:30:17.869Z,100.00
2022-11-10T03:33:03.611Z,99.58
2022-11-10T03:35:48.701Z,99.39
2022-11-10T03:38:33.920Z,100.00
2022-11-10T03:41:20.711Z,100.00
2022-11-10T03:44:06.160Z,100.00
2022-11-10T03:46:51.895Z,100.00
2022-11-10T03:49:36.856Z,100.00
2022-11-10T03:52:22.080Z,100.00
2022-11-10T03:55:07.890Z,100.00
2022-11-10T03:57:52.804Z,100.00
2022-11-10T04:00:38.417Z,100.00
2022-11-10T04:03:24.584Z,100.00
2022-11-10T04:06:30.177Z,100.00
2022-11-10T04:09:15.540Z,100.00
2022-11-10T04:12:23.651Z,100.00
2022-11-10T04:15:31.491Z,100.00
2022-11-10T04:18:25.710Z,100.00
2022-11-10T04:21:12.104Z,100.00
2022-11-10T04:23:57.699Z,100.00
2022-11-10T04:26:44.193Z,100.00
2022-11-10T04:29:29.740Z,100.00
2022-11-10T04:32:14.897Z,100.00
2022-11-10T04:35:00.201Z,100.00
2022-11-10T04:37:46.622Z,100.00
2022-11-10T04:40:31.788Z,100.00
2022-11-10T04:43:17.000Z,100.00
2022-11-10T04:46:03.370Z,100.00
2022-11-10T04:48:48.602Z,100.00
2022-11-10T04:51:36.499Z,100.00
2022-11-10T04:54:21.585Z,100.00
2022-11-10T04:57:06.953Z,100.00
2022-11-10T04:59:52.126Z,100.00
2022-11-10T05:02:39.809Z,100.00
2022-11-10T05:05:25.239Z,100.00
2022-11-10T05:08:10.488Z,100.00
2022-11-10T05:10:55.851Z,100.00
2022-11-10T05:13:41.125Z,100.00
2022-11-10T05:16:26.594Z,100.00
2022-11-10T05:19:11.834Z,100.00
2022-11-10T05:21:57.258Z,100.00
2022-11-10T05:24:42.569Z,100.00
2022-11-10T05:27:27.572Z,100.00
2022-11-10T05:30:12.826Z,100.00
2022-11-10T05:32:58.292Z,100.00
2022-11-10T05:35:44.184Z,100.00
2022-11-10T05:38:29.177Z,100.00
2022-11-10T05:41:14.504Z,100.00
2022-11-10T05:43:59.808Z,100.00
2022-11-10T05:46:45.144Z,100.00
2022-11-10T05:49:30.384Z,100.00
2022-11-10T05:52:15.831Z,100.00
2022-11-10T05:55:01.248Z,100.00
2022-11-10T05:57:47.964Z,100.00
2022-11-10T06:00:33.644Z,100.00
2022-11-10T06:03:19.909Z,100.00
2022-11-10T06:06:05.695Z,100.00
2022-11-10T06:08:50.667Z,100.00
2022-11-10T06:11:35.972Z,100.00
2022-11-10T06:14:21.186Z,100.00
2022-11-10T06:17:06.787Z,100.00
2022-11-10T06:19:51.941Z,100.00
2022-11-10T06:22:37.053Z,100.00
2022-11-10T06:25:22.294Z,100.00
2022-11-10T06:28:09.028Z,100.00
2022-11-10T06:30:58.079Z,100.00
2022-11-10T06:33:43.674Z,100.00
2022-11-10T06:36:28.646Z,100.00
2022-11-10T06:39:13.846Z,100.00
2022-11-10T06:41:59.129Z,100.00
2022-11-10T06:44:44.190Z,100.00
2022-11-10T06:47:29.929Z,100.00
2022-11-10T06:50:15.184Z,100.00
2022-11-10T06:53:01.306Z,100.00
2022-11-10T06:55:46.222Z,100.00
2022-11-10T06:58:31.527Z,100.00
2022-11-10T07:01:22.110Z,100.00
2022-11-10T07:04:19.613Z,100.00
2022-11-10T07:07:05.655Z,100.00
2022-11-10T07:09:50.720Z,100.00
2022-11-10T07:12:35.972Z,100.00
2022-11-10T07:15:21.041Z,100.00
2022-11-10T07:18:06.486Z,100.00
2022-11-10T07:20:51.771Z,100.00
2022-11-10T07:23:37.109Z,100.00
2022-11-10T07:26:22.396Z,100.00
2022-11-10T07:29:07.477Z,100.00
2022-11-10T07:31:53.166Z,100.00
2022-11-10T07:34:38.227Z,100.00
2022-11-10T07:37:23.420Z,100.00
2022-11-10T07:40:09.330Z,100.00
2022-11-10T07:42:54.585Z,100.00
2022-11-10T07:45:40.081Z,100.00
2022-11-10T07:48:25.429Z,100.00
2022-11-10T07:51:10.695Z,100.00
2022-11-10T07:53:56.006Z,100.00
2022-11-10T07:56:42.326Z,100.00
2022-11-10T07:59:27.641Z,100.00
2022-11-10T08:02:12.690Z,100.00
2022-11-10T08:04:57.871Z,100.00
2022-11-10T08:07:43.060Z,100.00
2022-11-10T08:10:29.723Z,100.00
2022-11-10T08:13:14.918Z,100.00
2022-11-10T08:16:00.224Z,100.00
2022-11-10T08:18:45.558Z,100.00
2022-11-10T08:21:31.373Z,100.00
2022-11-10T08:24:16.718Z,100.00
2022-11-10T08:27:02.007Z,100.00
2022-11-10T08:29:47.205Z,100.00
2022-11-10T08:32:32.471Z,100.00
2022-11-10T08:35:17.682Z,100.00
2022-11-10T08:38:11.216Z,100.00
2022-11-10T08:40:57.558Z,100.00
2022-11-10T08:43:43.632Z,100.00
2022-11-10T08:46:28.597Z,100.00
2022-11-10T08:49:14.102Z,100.00
2022-11-10T08:51:59.249Z,99.50
2022-11-10T08:54:44.728Z,100.00
2022-11-10T08:57:30.004Z,99.92
2022-11-10T09:00:16.634Z,99.84
2022-11-10T09:03:12.081Z,100.00
2022-11-10T09:05:58.733Z,99.91
2022-11-10T09:08:43.869Z,99.62
2022-11-10T09:11:35.172Z,99.52
2022-11-10T09:14:25.230Z,98.23
2022-11-10T09:17:12.076Z,99.04
2022-11-10T09:20:06.352Z,98.22
2022-11-10T09:23:15.701Z,97.61
2022-11-10T09:26:17.677Z,97.22
2022-11-10T09:29:17.694Z,96.72
2022-11-10T09:32:03.065Z,95.60
2022-11-10T09:34:52.682Z,96.44
2022-11-10T09:37:40.300Z,96.03
2022-11-10T09:40:37.729Z,95.50
2022-11-10T09:43:58.487Z,94.23
2022-11-10T09:46:53.594Z,94.21
2022-11-10T09:49:48.795Z,94.14
2022-11-10T09:52:36.660Z,93.07
2022-11-10T09:55:37.452Z,91.45
2022-11-10T09:58:30.021Z,90.83
2022-11-10T10:01:24.018Z,90.92
2022-11-10T10:04:51.494Z,91.93
2022-11-10T10:07:56.868Z,90.38
2022-11-10T10:10:51.727Z,90.07
2022-11-10T10:14:24.896Z,90.38
2022-11-10T10:17:40.998Z,88.80
2022-11-10T10:20:44.823Z,89.23
2022-11-10T10:24:07.835Z,88.56
2022-11-10T10:26:53.334Z,88.07
2022-11-10T10:29:48.050Z,87.31
2022-11-10T10:32:33.207Z,87.21
2022-11-10T10:35:18.972Z,87.29
2022-11-10T10:38:09.974Z,86.94
2022-11-10T10:41:00.685Z,87.35
2022-11-10T10:43:49.062Z,86.94
2022-11-10T10:46:45.989Z,86.79
2022-11-10T10:49:36.752Z,86.49
2022-11-10T10:52:25.017Z,84.94
2022-11-10T10:55:13.120Z,84.58
2022-11-10T10:58:01.169Z,85.41
2022-11-10T11:00:51.901Z,84.73
2022-11-10T11:03:38.823Z,83.88
2022-11-10T11:06:33.846Z,83.98
2022-11-10T11:09:24.610Z,84.39
2022-11-10T11:12:25.830Z,84.17
2022-11-10T11:15:20.984Z,84.41
2022-11-10T11:18:17.777Z,83.69
2022-11-10T11:21:22.060Z,83.64
2022-11-10T11:24:28.482Z,83.03
2022-11-10T11:27:37.802Z,83.16
2022-11-10T11:30:24.088Z,82.98
2022-11-10T11:33:23.584Z,82.51
2022-11-10T11:36:43.001Z,82.58
2022-11-10T11:39:49.820Z,82.95
2022-11-10T11:42:40.915Z,82.57
2022-11-10T11:45:57.437Z,81.95
2022-11-10T11:48:53.733Z,81.54
2022-11-10T11:52:04.093Z,81.96
2022-11-10T11:55:23.350Z,80.48
2022-11-10T11:58:42.025Z,79.30
2022-11-10T12:01:57.286Z,78.39
2022-11-10T12:04:45.954Z,77.06
2022-11-10T12:07:45.176Z,76.12
2022-11-10T12:10:43.000Z,76.27
2022-11-10T12:13:51.905Z,75.95
2022-11-10T12:16:39.208Z,75.06
2022-11-10T12:19:43.547Z,74.69
2022-11-10T12:22:31.832Z,74.41
2022-11-10T12:25:31.031Z,71.98
2022-11-10T12:28:22.624Z,72.10
2022-11-10T12:31:15.369Z,72.07
2022-11-10T12:34:24.644Z,71.68
2022-11-10T12:37:22.331Z,70.61
2022-11-10T12:40:28.676Z,70.14
2022-11-10T12:43:35.427Z,71.05
2022-11-10T12:46:20.611Z,72.31
2022-11-10T12:49:29.961Z,71.74
2022-11-10T12:52:28.771Z,72.14
2022-11-10T12:55:15.008Z,72.55
2022-11-10T12:58:01.933Z,70.90
2022-11-10T13:00:57.974Z,71.57
2022-11-10T13:03:58.947Z,69.63
2022-11-10T13:06:50.602Z,68.58
2022-11-10T13:09:39.144Z,69.64
2022-11-10T13:12:25.896Z,69.69
2022-11-10T13:15:36.549Z,67.79
2022-11-10T13:18:42.443Z,67.70
2022-11-10T13:21:52.487Z,68.52
2022-11-10T13:24:40.760Z,68.54
2022-11-10T13:27:38.005Z,70.76
2022-11-10T13:30:43.729Z,69.76
2022-11-10T13:33:31.242Z,69.76
2022-11-10T13:37:02.280Z,69.54
2022-11-10T13:39:47.369Z,68.73
2022-11-10T13:42:32.798Z,69.61
2022-11-10T13:45:39.951Z,69.95
2022-11-10T13:48:41.768Z,69.58
2022-11-10T13:51:53.711Z,70.32
2022-11-10T13:55:11.777Z,70.22
2022-11-10T13:58:03.828Z,70.76
2022-11-10T14:01:14.851Z,71.02
2022-11-10T14:04:02.228Z,71.05
2022-11-10T14:06:55.088Z,69.92
2022-11-10T14:09:48.126Z,71.31
2022-11-10T14:12:50.843Z,71.58
2022-11-10T14:15:43.132Z,71.31
2022-11-10T14:18:39.630Z,71.42
2022-11-10T14:21:35.121Z,70.68
2022-11-10T14:24:28.756Z,71.61
2022-11-10T14:27:21.041Z,70.34
2022-11-10T14:30:27.965Z,69.78
2022-11-10T14:33:16.003Z,70.69
2022-11-10T14:36:07.614Z,70.23
2022-11-10T14:38:53.311Z,70.78
2022-11-10T14:41:47.305Z,70.44
2022-11-10T14:44:34.618Z,70.85
2022-11-10T14:47:31.229Z,70.73
2022-11-10T14:50:26.087Z,70.68
2022-11-10T14:53:14.103Z,70.83
2022-11-10T14:56:03.921Z,70.96
2022-11-10T14:58:49.963Z,71.22
2022-11-10T15:01:39.539Z,72.54
2022-11-10T15:04:29.583Z,72.73
2022-11-10T15:07:14.958Z,72.71
2022-11-10T15:10:24.647Z,72.55
2022-11-10T15:13:12.702Z,72.28
2022-11-10T15:16:20.665Z,72.40
2022-11-10T15:19:29.334Z,73.29
2022-11-10T15:22:30.731Z,72.84
2022-11-10T15:25:22.275Z,72.62
2022-11-10T15:28:13.796Z,73.07
2022-11-10T15:31:02.605Z,73.49
2022-11-10T15:33:50.532Z,74.13
2022-11-10T15:36:41.172Z,74.10
2022-11-10T15:39:27.734Z,73.88
2022-11-10T15:42:18.912Z,73.89
2022-11-10T15:45:05.029Z,74.22
2022-11-10T15:47:50.926Z,73.74
2022-11-10T15:50:36.535Z,74.18
2022-11-10T15:53:27.517Z,74.52
2022-11-10T15:56:17.034Z,74.89
2022-11-10T15:59:02.764Z,75.06
2022-11-10T16:01:48.649Z,74.70
2022-11-10T16:04:33.907Z,75.01
2022-11-10T16:07:19.133Z,75.51
2022-11-10T16:10:05.979Z,75.77
2022-11-10T16:12:51.365Z,76.33
2022-11-10T16:15:36.669Z,76.25
2022-11-10T16:18:25.418Z,76.17
2022-11-10T16:21:16.456Z,76.22
2022-11-10T16:24:02.007Z,76.98
2022-11-10T16:26:47.008Z,76.67
2022-11-10T16:29:33.388Z,76.79
2022-11-10T16:32:18.619Z,76.25
2022-11-10T16:35:04.297Z,76.18
2022-11-10T16:37:49.507Z,75.58
2022-11-10T16:40:34.459Z,75.73
2022-11-10T16:43:20.152Z,75.41
2022-11-10T16:46:13.856Z,75.87
2022-11-10T16:49:01.308Z,76.04
2022-11-10T16:51:49.050Z,76.04
2022-11-10T16:54:34.354Z,76.19
2022-11-10T16:57:20.631Z,76.45
2022-11-10T17:00:06.481Z,76.65
2022-11-10T17:03:06.249Z,77.49
2022-11-10T17:05:51.440Z,77.20
2022-11-10T17:08:36.780Z,77.37
2022-11-10T17:11:22.478Z,77.83
2022-11-10T17:14:10.780Z,77.25
2022-11-10T17:16:58.753Z,77.46
2022-11-10T17:19:45.086Z,77.33
2022-11-10T17:22:33.085Z,77.17
2022-11-10T17:25:27.802Z,77.02
2022-11-10T17:28:15.464Z,77.10
2022-11-10T17:31:00.855Z,77.40
2022-11-10T17:33:46.578Z,77.26
2022-11-10T17:36:34.670Z,77.85
2022-11-10T17:39:20.304Z,77.46
2022-11-10T17:42:05.952Z,77.88
2022-11-10T17:44:51.038Z,78.16
2022-11-10T17:47:36.533Z,78.88
2022-11-10T17:50:23.689Z,78.77
2022-11-10T17:53:15.431Z,79.03
2022-11-10T17:56:00.831Z,79.28
2022-11-10T17:58:46.476Z,79.47
2022-11-10T18:01:31.911Z,79.70
2022-11-10T18:04:17.255Z,79.43
2022-11-10T18:07:02.687Z,79.76
2022-11-10T18:09:48.544Z,80.98
2022-11-10T18:12:34.154Z,80.87
2022-11-10T18:15:19.347Z,81.19
2022-11-10T18:18:04.566Z,81.03
2022-11-10T18:20:49.650Z,81.16
2022-11-10T18:23:34.990Z,81.75
2022-11-10T18:26:20.289Z,81.57
2022-11-10T18:29:05.795Z,81.87
2022-11-10T18:31:51.035Z,82.23
2022-11-10T18:34:36.315Z,82.44
2022-11-10T18:37:21.904Z,82.44
2022-11-10T18:40:07.884Z,83.77
2022-11-10T18:42:58.547Z,84.01
2022-11-10T18:45:45.916Z,84.01
2022-11-10T18:48:36.119Z,83.70
2022-11-10T18:51:22.266Z,83.98
2022-11-10T18:54:08.361Z,83.75
2022-11-10T18:56:54.253Z,84.03
2022-11-10T18:59:40.286Z,84.45
2022-11-10T19:02:25.779Z,85.31
2022-11-10T19:05:11.058Z,85.58
2022-11-10T19:07:56.727Z,86.42
2022-11-10T19:10:42.513Z,86.17
2022-11-10T19:13:27.868Z,85.96
2022-11-10T19:16:16.876Z,85.72
2022-11-10T19:19:02.312Z,85.53
2022-11-10T19:21:47.668Z,85.65
2022-11-10T19:24:42.245Z,86.24
2022-11-10T19:27:38.128Z,86.03
2022-11-10T19:30:23.434Z,86.00
2022-11-10T19:33:08.608Z,85.88
2022-11-10T19:35:53.691Z,87.26
2022-11-10T19:38:39.571Z,87.84
2022-11-10T19:41:30.839Z,86.83
2022-11-10T19:44:16.068Z,87.64
2022-11-10T19:47:04.363Z,87.66
2022-11-10T19:49:53.097Z,86.99
2022-11-10T19:52:38.237Z,87.80
2022-11-10T19:55:23.441Z,87.58
2022-11-10T19:58:08.993Z,87.38
2022-11-10T20:00:54.858Z,87.45
2022-11-10T20:03:40.677Z,87.22
2022-11-10T20:06:26.445Z,86.69
2022-11-10T20:09:12.081Z,87.54
2022-11-10T20:11:57.214Z,87.68
2022-11-10T20:14:42.343Z,88.04
2022-11-10T20:17:27.695Z,88.17
2022-11-10T20:20:14.115Z,88.87
2022-11-10T20:23:04.542Z,88.07
2022-11-10T20:25:49.643Z,87.73
2022-11-10T20:28:37.338Z,87.47
2022-11-10T20:31:26.268Z,87.39
2022-11-10T20:34:11.584Z,88.22
2022-11-10T20:36:56.957Z,88.45
2022-11-10T20:39:42.335Z,87.71
2022-11-10T20:42:27.800Z,89.26
2022-11-10T20:45:13.590Z,88.69
2022-11-10T20:47:58.839Z,89.92
2022-11-10T20:50:43.882Z,89.34
2022-11-10T20:53:29.573Z,89.96
2022-11-10T20:56:15.949Z,89.75
2022-11-10T20:59:00.991Z,89.50
2022-11-10T21:01:46.812Z,89.86
2022-11-10T21:04:32.369Z,89.73
2022-11-10T21:07:17.603Z,89.53
2022-11-10T21:10:03.288Z,88.89
2022-11-10T21:12:51.217Z,90.16
2022-11-10T21:15:40.060Z,89.83
2022-11-10T21:18:31.091Z,89.52
2022-11-10T21:21:22.844Z,89.48
2022-11-10T21:24:09.396Z,89.53
2022-11-10T21:26:56.247Z,89.56
2022-11-10T21:29:42.341Z,89.40
2022-11-10T21:32:28.400Z,88.86
2022-11-10T21:35:13.641Z,89.21
2022-11-10T21:37:58.903Z,89.63
2022-11-10T21:40:44.259Z,89.28
2022-11-10T21:43:29.673Z,89.75
2022-11-10T21:46:15.140Z,90.22
2022-11-10T21:49:06.084Z,90.14
2022-11-10T21:51:52.831Z,90.00
2022-11-10T21:54:38.153Z,89.88
2022-11-10T21:57:23.023Z,90.21
2022-11-10T22:00:11.864Z,90.37
2022-11-10T22:03:01.968Z,89.88
2022-11-10T22:05:46.918Z,89.80
2022-11-10T22:08:32.510Z,90.02
2022-11-10T22:11:38.357Z,90.21
2022-11-10T22:14:42.230Z,90.19
2022-11-10T22:17:45.997Z,89.64
2022-11-10T22:20:31.425Z,89.43
2022-11-10T22:23:16.649Z,90.30
2022-11-10T22:26:01.900Z,90.32
2022-11-10T22:28:47.121Z,89.35
2022-11-10T22:31:33.820Z,89.42
2022-11-10T22:34:19.860Z,89.07
2022-11-10T22:37:05.016Z,89.57
2022-11-10T22:40:08.572Z,90.05
2022-11-10T22:43:12.364Z,89.85
2022-11-10T22:45:58.192Z,89.81
2022-11-10T22:48:43.411Z,89.92
2022-11-10T22:51:29.918Z,89.83
2022-11-10T22:54:17.132Z,89.62
2022-11-10T22:57:02.275Z,89.16
2022-11-10T22:59:47.443Z,89.17
2022-11-10T23:02:32.720Z,89.07
2022-11-10T23:05:17.980Z,89.07
2022-11-10T23:08:03.406Z,89.82
2022-11-10T23:10:49.152Z,89.51
2022-11-10T23:13:35.327Z,89.76
2022-11-10T23:16:26.302Z,89.23
2022-11-10T23:19:11.874Z,89.91
2022-11-10T23:21:57.212Z,89.58
2022-11-10T23:24:42.380Z,89.07
2022-11-10T23:27:27.364Z,89.73
2022-11-10T23:30:12.608Z,89.30
2022-11-10T23:32:57.737Z,89.66
2022-11-10T23:35:42.873Z,89.97
2022-11-10T23:38:32.958Z,89.65
2022-11-10T23:41:20.431Z,90.57
2022-11-10T23:44:08.399Z,90.92
2022-11-10T23:46:53.718Z,90.54
2022-11-10T23:49:38.982Z,90.88
2022-11-10T23:52:24.154Z,90.97
2022-11-10T23:55:09.654Z,90.44
2022-11-10T23:57:54.916Z,91.08
